createdAt,value
2022-09-01T00:00:02.307Z,83.36
2022-09-01T00:02:30.221Z,83.58
2022-09-01T00:05:00.033Z,83.20
2022-09-01T00:07:30.744Z,83.78
2022-09-01T00:09:59.209Z,83.40
2022-09-01T00:12:26.338Z,83.34
2022-09-01T00:14:53.833Z,83.05
2022-09-01T00:17:21.166Z,83.19
2022-09-01T00:19:48.077Z,83.65
2022-09-01T00:22:15.015Z,83.55
2022-09-01T00:24:41.916Z,83.47
2022-09-01T00:27:08.945Z,83.73
2022-09-01T00:29:36.339Z,84.09
2022-09-01T00:32:03.733Z,84.36
2022-09-01T00:34:30.628Z,83.95
2022-09-01T00:36:57.559Z,84.40
2022-09-01T00:39:24.828Z,84.14
2022-09-01T00:41:51.741Z,84.10
2022-09-01T00:44:27.194Z,84.47
2022-09-01T00:46:57.554Z,83.92
2022-09-01T00:49:31.841Z,84.33
2022-09-01T00:52:45.539Z,84.97
2022-09-01T00:55:17.325Z,84.78
2022-09-01T00:57:45.093Z,84.74
2022-09-01T01:00:23.638Z,84.51
2022-09-01T01:02:56.393Z,84.88
2022-09-01T01:05:31.219Z,84.88
2022-09-01T01:07:58.178Z,84.61
2022-09-01T01:10:26.598Z,84.48
2022-09-01T01:12:54.203Z,84.32
2022-09-01T01:15:21.481Z,84.45
2022-09-01T01:17:48.401Z,84.64
2022-09-01T01:20:35.700Z,85.01
2022-09-01T01:23:24.075Z,85.21
2022-09-01T01:25:57.667Z,85.09
2022-09-01T01:28:37.341Z,84.87
2022-09-01T01:31:17.680Z,84.71
2022-09-01T01:33:55.712Z,84.85
2022-09-01T01:36:36.489Z,85.03
2022-09-01T01:39:09.275Z,84.82
2022-09-01T01:41:41.163Z,84.83
2022-09-01T01:44:08.771Z,85.64
2022-09-01T01:46:37.455Z,85.64
2022-09-01T01:49:04.740Z,85.69
2022-09-01T01:51:33.044Z,85.50
2022-09-01T01:54:05.742Z,85.33
2022-09-01T01:56:34.088Z,84.95
2022-09-01T01:59:02.192Z,85.68
2022-09-01T02:01:32.410Z,85.63
2022-09-01T02:04:00.567Z,85.46
2022-09-01T02:06:28.280Z,85.46
2022-09-01T02:08:58.235Z,85.06
2022-09-01T02:11:26.377Z,85.30
2022-09-01T02:13:57.639Z,85.62
2022-09-01T02:16:26.428Z,85.87
2022-09-01T02:18:54.170Z,85.72
2022-09-01T02:21:23.554Z,85.88
2022-09-01T02:24:01.307Z,85.35
2022-09-01T02:26:33.746Z,85.69
2022-09-01T02:29:04.879Z,85.82
2022-09-01T02:31:39.390Z,85.50
2022-09-01T02:34:10.888Z,85.38
2022-09-01T02:36:42.624Z,85.63
2022-09-01T02:39:09.464Z,85.39
2022-09-01T02:41:38.317Z,85.66
2022-09-01T02:44:11.908Z,85.71
2022-09-01T02:46:46.760Z,85.66
2022-09-01T02:49:17.760Z,85.41
2022-09-01T02:51:48.548Z,85.97
2022-09-01T02:54:19.289Z,86.00
2022-09-01T02:56:48.260Z,86.80
2022-09-01T02:59:16.164Z,86.18
2022-09-01T03:01:44.961Z,86.11
2022-09-01T03:04:12.070Z,86.27
2022-09-01T03:06:39.478Z,86.78
2022-09-01T03:09:09.166Z,86.42
2022-09-01T03:11:39.776Z,87.07
2022-09-01T03:14:07.816Z,86.91
2022-09-01T03:16:35.389Z,86.32
2022-09-01T03:19:03.599Z,86.85
2022-09-01T03:21:32.281Z,86.40
2022-09-01T03:24:02.294Z,86.52
2022-09-01T03:26:29.719Z,86.43
2022-09-01T03:28:57.141Z,86.54
2022-09-01T03:31:29.082Z,86.72
2022-09-01T03:33:58.533Z,86.54
2022-09-01T03:36:26.140Z,86.84
2022-09-01T03:38:53.337Z,86.41
2022-09-01T03:41:25.289Z,86.58
2022-09-01T03:43:56.325Z,85.99
2022-09-01T03:46:24.530Z,86.44
2022-09-01T03:48:55.305Z,86.58
2022-09-01T03:51:23.835Z,87.21
2022-09-01T03:53:55.134Z,86.63
2022-09-01T03:56:28.605Z,86.42
2022-09-01T03:58:57.588Z,86.60
2022-09-01T04:01:26.370Z,86.99
2022-09-01T04:03:53.904Z,86.64
2022-09-01T04:06:24.437Z,86.44
2022-09-01T04:08:57.981Z,85.94
2022-09-01T04:11:25.843Z,85.76
2022-09-01T04:13:52.933Z,86.26
2022-09-01T04:16:44.068Z,86.38
2022-09-01T04:19:20.945Z,86.51
2022-09-01T04:21:50.620Z,86.63
2022-09-01T04:24:19.263Z,86.94
2022-09-01T04:26:48.877Z,86.98
2022-09-01T04:29:19.526Z,87.16
2022-09-01T04:31:49.320Z,86.48
2022-09-01T04:34:16.514Z,86.28
2022-09-01T04:36:45.226Z,86.08
2022-09-01T04:39:13.491Z,86.25
2022-09-01T04:41:46.335Z,86.16
2022-09-01T04:44:16.962Z,85.86
2022-09-01T04:46:46.605Z,85.35
2022-09-01T04:49:19.580Z,85.99
2022-09-01T04:51:53.689Z,85.85
2022-09-01T04:54:23.127Z,86.28
2022-09-01T04:56:52.713Z,86.13
2022-09-01T04:59:22.737Z,85.98
2022-09-01T05:01:51.022Z,85.95
2022-09-01T05:04:27.624Z,85.37
2022-09-01T05:07:01.271Z,85.89
2022-09-01T05:09:38.724Z,85.39
2022-09-01T05:12:15.569Z,85.08
2022-09-01T05:14:44.687Z,85.81
2022-09-01T05:17:13.073Z,85.59
2022-09-01T05:19:41.684Z,85.42
2022-09-01T05:22:10.527Z,85.79
2022-09-01T05:24:41.972Z,86.46
2022-09-01T05:27:10.771Z,86.30
2022-09-01T05:29:38.692Z,85.99
2022-09-01T05:32:09.016Z,85.75
2022-09-01T05:34:38.204Z,85.73
2022-09-01T05:37:06.591Z,86.09
2022-09-01T05:39:33.573Z,85.40
2022-09-01T05:42:01.768Z,85.84
2022-09-01T05:44:28.650Z,85.72
2022-09-01T05:46:59.780Z,85.87
2022-09-01T05:49:28.788Z,85.30
2022-09-01T05:51:59.173Z,86.24
2022-09-01T05:54:27.900Z,86.03
2022-09-01T05:57:04.903Z,85.65
2022-09-01T05:59:41.706Z,85.50
2022-09-01T06:02:09.582Z,85.99
2022-09-01T06:04:41.391Z,86.11
2022-09-01T06:07:11.899Z,86.17
2022-09-01T06:09:47.133Z,85.43
2022-09-01T06:12:18.820Z,85.75
2022-09-01T06:14:50.080Z,86.03
2022-09-01T06:17:22.278Z,86.06
2022-09-01T06:19:49.306Z,86.57
2022-09-01T06:22:17.209Z,86.53
2022-09-01T06:24:45.565Z,86.56
2022-09-01T06:27:18.651Z,86.66
2022-09-01T06:29:45.708Z,86.18
2022-09-01T06:32:12.738Z,86.50
2022-09-01T06:34:42.737Z,86.89
2022-09-01T06:37:13.584Z,87.39
2022-09-01T06:39:40.566Z,87.22
2022-09-01T06:42:09.695Z,86.99
2022-09-01T06:44:40.749Z,87.39
2022-09-01T06:47:09.246Z,87.23
2022-09-01T06:49:36.936Z,87.22
2022-09-01T06:52:04.615Z,87.88
2022-09-01T06:54:36.086Z,87.95
2022-09-01T06:59:52.468Z,88.09
2022-09-01T07:02:22.347Z,88.15
2022-09-01T07:04:53.880Z,89.04
2022-09-01T07:10:25.756Z,89.43
2022-09-01T07:13:12.426Z,89.03
2022-09-01T07:18:29.104Z,88.73
2022-09-01T07:24:17.759Z,89.24
2022-09-01T07:26:31.413Z,88.89
2022-09-01T07:29:01.925Z,87.79
2022-09-01T07:34:46.186Z,87.54
2022-09-01T07:38:02.952Z,87.68
2022-09-01T07:45:30.420Z,89.13
2022-09-01T07:48:03.468Z,89.88
2022-09-01T07:51:07.627Z,89.29
2022-09-01T07:53:25.449Z,89.86
2022-09-01T07:55:54.691Z,89.90
2022-09-01T07:58:25.219Z,89.56
2022-09-01T08:00:53.505Z,89.24
2022-09-01T08:03:23.236Z,88.95
2022-09-01T08:05:53.982Z,88.71
2022-09-01T08:08:24.973Z,88.34
2022-09-01T08:11:04.333Z,87.77
2022-09-01T08:13:34.662Z,87.46
2022-09-01T08:16:07.164Z,87.92
2022-09-01T08:18:50.560Z,87.50
2022-09-01T08:21:19.148Z,87.63
2022-09-01T08:23:48.056Z,87.24
2022-09-01T08:26:17.578Z,86.64
2022-09-01T08:28:54.918Z,86.15
2022-09-01T08:31:23.713Z,86.40
2022-09-01T08:33:51.370Z,85.80
2022-09-01T08:36:23.069Z,86.33
2022-09-01T08:38:51.428Z,85.97
2022-09-01T08:41:40.407Z,85.71
2022-09-01T08:44:22.746Z,86.21
2022-09-01T08:47:04.494Z,85.75
2022-09-01T08:49:43.014Z,85.79
2022-09-01T08:53:09.025Z,86.11
2022-09-01T08:55:40.778Z,85.59
2022-09-01T08:58:11.083Z,85.54
2022-09-01T09:00:42.633Z,85.47
2022-09-01T09:03:22.411Z,85.14
2022-09-01T09:06:17.141Z,84.84
2022-09-01T09:08:58.129Z,84.79
2022-09-01T09:11:56.201Z,84.35
2022-09-01T09:14:37.359Z,84.46
2022-09-01T09:17:05.023Z,84.50
2022-09-01T09:19:35.615Z,84.58
2022-09-01T09:22:06.250Z,83.50
2022-09-01T09:25:00.351Z,83.74
2022-09-01T09:27:34.165Z,83.36
2022-09-01T09:30:09.145Z,82.96
2022-09-01T09:35:45.702Z,82.38
2022-09-01T09:38:33.726Z,82.56
2022-09-01T09:41:20.262Z,82.04
2022-09-01T09:44:01.366Z,81.80
2022-09-01T09:46:34.610Z,81.89
2022-09-01T09:49:36.510Z,81.37
2022-09-01T09:52:10.647Z,81.58
2022-09-01T09:55:00.955Z,81.39
2022-09-01T09:57:30.247Z,81.64
2022-09-01T10:00:08.529Z,81.81
2022-09-01T10:02:46.015Z,81.45
2022-09-01T10:05:34.904Z,80.81
2022-09-01T10:08:02.502Z,80.61
2022-09-01T10:10:57.986Z,80.51
2022-09-01T10:13:26.933Z,79.31
2022-09-01T10:15:57.581Z,80.11
2022-09-01T10:18:33.681Z,79.98
2022-09-01T10:21:09.317Z,80.07
2022-09-01T10:23:38.795Z,80.51
2022-09-01T10:26:33.624Z,80.66
2022-09-01T10:29:12.001Z,80.54
2022-09-01T10:31:40.495Z,80.50
2022-09-01T10:34:08.616Z,80.89
2022-09-01T10:36:37.792Z,81.44
2022-09-01T10:39:09.096Z,81.51
2022-09-01T10:41:59.608Z,81.32
2022-09-01T10:44:34.512Z,82.10
2022-09-01T10:47:29.548Z,81.82
2022-09-01T10:49:59.690Z,82.03
2022-09-01T10:52:43.883Z,82.39
2022-09-01T10:55:41.730Z,82.04
2022-09-01T11:01:10.898Z,82.73
2022-09-01T11:03:51.491Z,82.70
2022-09-01T11:07:11.564Z,82.86
2022-09-01T11:09:39.808Z,82.87
2022-09-01T11:12:29.814Z,83.28
2022-09-01T11:15:02.095Z,84.21
2022-09-01T11:17:38.602Z,84.78
2022-09-01T11:20:23.321Z,85.02
2022-09-01T11:23:12.165Z,85.64
2022-09-01T11:25:45.326Z,85.75
2022-09-01T11:28:18.002Z,86.35
2022-09-01T11:31:04.157Z,87.32
2022-09-01T11:33:52.750Z,88.02
2022-09-01T11:36:23.689Z,88.66
2022-09-01T11:39:00.233Z,88.94
2022-09-01T11:41:48.937Z,89.00
2022-09-01T11:44:28.681Z,89.78
2022-09-01T11:47:00.037Z,89.77
2022-09-01T11:49:33.370Z,89.90
2022-09-01T11:52:01.132Z,90.22
2022-09-01T11:54:30.361Z,90.54
2022-09-01T11:56:57.273Z,90.63
2022-09-01T11:59:35.414Z,91.14
2022-09-01T12:02:04.282Z,90.95
2022-09-01T12:04:35.718Z,91.80
2022-09-01T12:07:14.130Z,91.79
2022-09-01T12:09:46.394Z,91.75
2022-09-01T12:12:33.414Z,92.03
2022-09-01T12:15:06.133Z,92.92
2022-09-01T12:17:34.627Z,93.17
2022-09-01T12:20:29.229Z,93.40
2022-09-01T12:22:57.354Z,94.04
2022-09-01T12:25:28.576Z,94.41
2022-09-01T12:27:55.896Z,94.87
2022-09-01T12:30:26.102Z,94.76
2022-09-01T12:33:22.854Z,96.09
2022-09-01T12:35:42.028Z,95.87
2022-09-01T12:38:21.067Z,96.50
2022-09-01T12:40:51.141Z,96.45
2022-09-01T12:43:39.881Z,96.66
2022-09-01T12:46:10.905Z,96.55
2022-09-01T12:48:40.682Z,97.14
2022-09-01T12:51:18.775Z,97.15
2022-09-01T12:53:58.441Z,96.87
2022-09-01T12:56:32.175Z,97.17
2022-09-01T12:59:26.232Z,97.69
2022-09-01T13:02:28.994Z,97.80
2022-09-01T13:04:56.354Z,97.29
2022-09-01T13:07:23.394Z,96.76
2022-09-01T13:09:50.446Z,97.53
2022-09-01T13:12:20.962Z,97.53
2022-09-01T13:14:48.207Z,97.28
2022-09-01T13:17:15.229Z,97.84
2022-09-01T13:19:42.471Z,97.83
2022-09-01T13:22:10.105Z,98.35
2022-09-01T13:24:37.094Z,97.11
2022-09-01T13:27:21.369Z,97.86
2022-09-01T13:29:49.564Z,97.75
2022-09-01T13:32:19.315Z,97.38
2022-09-01T13:34:48.613Z,97.45
2022-09-01T13:37:18.287Z,97.62
2022-09-01T13:39:46.529Z,98.20
2022-09-01T13:42:14.912Z,98.16
2022-09-01T13:44:44.098Z,98.45
2022-09-01T13:50:09.919Z,97.94
2022-09-01T13:52:42.709Z,97.48
2022-09-01T13:55:15.638Z,97.64
2022-09-01T13:57:42.909Z,96.81
2022-09-01T14:00:14.187Z,97.22
2022-09-01T14:02:43.256Z,95.27
2022-09-01T14:05:10.686Z,94.71
2022-09-01T14:07:37.651Z,95.28
2022-09-01T14:10:05.338Z,94.68
2022-09-01T14:12:32.803Z,95.20
2022-09-01T14:15:17.518Z,95.68
2022-09-01T14:17:46.814Z,95.81
2022-09-01T14:20:18.719Z,95.86
2022-09-01T14:22:46.489Z,94.59
2022-09-01T14:25:14.559Z,94.31
2022-09-01T14:27:42.613Z,95.56
2022-09-01T14:30:30.614Z,95.63
2022-09-01T14:33:01.921Z,95.29
2022-09-01T14:35:30.965Z,95.67
2022-09-01T14:37:59.235Z,95.46
2022-09-01T14:40:26.407Z,95.47
2022-09-01T14:42:53.495Z,95.63
2022-09-01T14:45:23.515Z,95.43
2022-09-01T14:47:53.976Z,95.81
2022-09-01T14:50:23.184Z,95.77
2022-09-01T14:52:54.400Z,96.02
2022-09-01T14:55:23.671Z,95.56
2022-09-01T14:57:50.975Z,96.06
2022-09-01T15:00:18.738Z,96.29
2022-09-01T15:02:46.072Z,96.15
2022-09-01T15:05:13.960Z,96.29
2022-09-01T15:07:41.772Z,95.74
2022-09-01T15:10:10.979Z,96.18
2022-09-01T15:12:47.504Z,96.25
2022-09-01T15:15:14.403Z,96.47
2022-09-01T15:17:44.571Z,97.50
2022-09-01T15:20:32.000Z,97.52
2022-09-01T15:22:58.986Z,97.83
2022-09-01T15:25:25.871Z,98.56
2022-09-01T15:27:53.297Z,97.92
2022-09-01T15:30:21.816Z,97.73
2022-09-01T15:32:52.040Z,97.71
2022-09-01T15:35:20.132Z,97.45
2022-09-01T15:37:48.398Z,98.93
2022-09-01T15:40:15.484Z,99.31
2022-09-01T15:42:42.637Z,99.59
2022-09-01T15:45:12.954Z,99.07
2022-09-01T15:47:44.899Z,99.38
2022-09-01T15:50:21.210Z,99.51
2022-09-01T15:52:58.745Z,100.00
2022-09-01T15:55:31.025Z,100.00
2022-09-01T15:57:59.053Z,100.00
2022-09-01T16:00:26.901Z,100.00
2022-09-01T16:02:56.694Z,100.00
2022-09-01T16:05:25.370Z,100.00
2022-09-01T16:07:53.109Z,100.00
2022-09-01T16:10:20.623Z,100.00
2022-09-01T16:12:48.335Z,100.00
2022-09-01T16:15:17.018Z,100.00
2022-09-01T16:18:06.499Z,100.00
2022-09-01T16:20:42.343Z,100.00
2022-09-01T16:23:17.066Z,100.00
2022-09-01T16:25:44.830Z,100.00
2022-09-01T16:28:35.848Z,100.00
2022-09-01T16:31:13.052Z,100.00
2022-09-01T16:33:49.349Z,100.00
2022-09-01T16:36:25.194Z,100.00
2022-09-01T16:39:19.196Z,100.00
2022-09-01T16:42:17.177Z,100.00
2022-09-01T16:45:42.747Z,100.00
2022-09-01T16:48:14.798Z,100.00
2022-09-01T16:51:00.693Z,100.00
2022-09-01T16:53:30.614Z,100.00
2022-09-01T16:56:10.787Z,100.00
2022-09-01T16:58:49.742Z,100.00
2022-09-01T17:01:37.358Z,100.00
2022-09-01T17:04:26.304Z,100.00
2022-09-01T17:07:03.929Z,100.00
2022-09-01T17:09:33.459Z,100.00
2022-09-01T17:12:27.844Z,100.00
2022-09-01T17:15:03.343Z,100.00
2022-09-01T17:17:47.108Z,100.00
2022-09-01T17:20:14.728Z,100.00
2022-09-01T17:22:47.004Z,100.00
2022-09-01T17:25:24.334Z,100.00
2022-09-01T17:28:02.100Z,100.00
2022-09-01T17:30:31.945Z,100.00
2022-09-01T17:33:18.709Z,100.00
2022-09-01T17:36:05.342Z,100.00
2022-09-01T17:38:38.013Z,100.00
2022-09-01T17:41:19.304Z,100.00
2022-09-01T17:44:18.195Z,100.00
2022-09-01T17:47:14.382Z,100.00
2022-09-01T17:50:07.728Z,100.00
2022-09-01T17:53:10.325Z,100.00
2022-09-01T17:55:55.977Z,100.00
2022-09-01T17:58:31.683Z,100.00
2022-09-01T18:01:18.308Z,100.00
2022-09-01T18:03:45.678Z,100.00
2022-09-01T18:06:23.558Z,100.00
2022-09-01T18:08:54.138Z,100.00
2022-09-01T18:11:28.302Z,100.00
2022-09-01T18:14:01.158Z,100.00
2022-09-01T18:16:47.977Z,100.00
2022-09-01T18:19:19.335Z,100.00
2022-09-01T18:22:01.946Z,100.00
2022-09-01T18:24:28.818Z,100.00
2022-09-01T18:26:55.697Z,100.00
2022-09-01T18:29:25.288Z,100.00
2022-09-01T18:32:11.769Z,100.00
2022-09-01T18:35:04.819Z,100.00
2022-09-01T18:37:40.719Z,100.00
2022-09-01T18:40:29.444Z,100.00
2022-09-01T18:42:59.020Z,100.00
2022-09-01T18:45:48.481Z,100.00
2022-09-01T18:48:53.719Z,100.00
2022-09-01T18:51:39.073Z,100.00
2022-09-01T18:54:28.370Z,100.00
2022-09-01T18:56:57.768Z,100.00
2022-09-01T18:59:52.501Z,100.00
2022-09-01T19:02:58.153Z,100.00
2022-09-01T19:05:46.278Z,100.00
2022-09-01T19:08:22.173Z,100.00
2022-09-01T19:11:01.403Z,100.00
2022-09-01T19:13:38.478Z,100.00
2022-09-01T19:16:43.088Z,100.00
2022-09-01T19:19:37.834Z,100.00
2022-09-01T19:22:04.830Z,100.00
2022-09-01T19:24:37.042Z,100.00
2022-09-01T19:27:10.730Z,100.00
2022-09-01T19:30:05.568Z,100.00
2022-09-01T19:32:35.660Z,100.00
2022-09-01T19:35:14.509Z,100.00
2022-09-01T19:37:44.118Z,100.00
2022-09-01T19:40:11.754Z,100.00
2022-09-01T19:42:44.075Z,100.00
2022-09-01T19:45:30.338Z,100.00
2022-09-01T19:48:24.312Z,100.00
2022-09-01T19:51:03.133Z,100.00
2022-09-01T19:53:30.044Z,100.00
2022-09-01T19:56:09.521Z,100.00
2022-09-01T19:58:59.301Z,100.00
2022-09-01T20:01:59.733Z,100.00
2022-09-01T20:04:53.602Z,100.00
2022-09-01T20:07:44.429Z,100.00
2022-09-01T20:10:21.974Z,100.00
2022-09-01T20:13:30.710Z,100.00
2022-09-01T20:16:20.027Z,100.00
2022-09-01T20:18:59.212Z,100.00
2022-09-01T20:21:26.968Z,100.00
2022-09-01T20:24:23.134Z,100.00
2022-09-01T20:26:59.526Z,100.00
2022-09-01T20:29:49.936Z,100.00
2022-09-01T20:32:27.812Z,100.00
2022-09-01T20:35:07.002Z,100.00
2022-09-01T20:38:01.423Z,100.00
2022-09-01T20:40:37.272Z,100.00
2022-09-01T20:43:22.637Z,100.00
2022-09-01T20:45:50.814Z,100.00
2022-09-01T20:48:25.733Z,100.00
2022-09-01T20:51:16.417Z,100.00
2022-09-01T20:53:53.826Z,100.00
2022-09-01T20:56:26.782Z,100.00
2022-09-01T20:59:08.923Z,100.00
2022-09-01T21:02:11.393Z,100.00
2022-09-01T21:04:47.325Z,100.00
2022-09-01T21:07:56.651Z,100.00
2022-09-01T21:10:42.924Z,100.00
2022-09-01T21:13:49.375Z,100.00
2022-09-01T21:16:19.042Z,100.00
2022-09-01T21:18:51.923Z,100.00
2022-09-01T21:21:23.259Z,100.00
2022-09-01T21:23:50.201Z,100.00
2022-09-01T21:26:17.122Z,100.00
2022-09-01T21:28:48.118Z,100.00
2022-09-01T21:31:15.401Z,100.00
2022-09-01T21:33:42.256Z,100.00
2022-09-01T21:36:09.526Z,100.00
2022-09-01T21:38:36.440Z,100.00
2022-09-01T21:41:04.354Z,100.00
2022-09-01T21:43:41.585Z,100.00
2022-09-01T21:46:09.469Z,100.00
2022-09-01T21:48:36.975Z,100.00
2022-09-01T21:51:06.920Z,100.00
2022-09-01T21:53:33.896Z,100.00
2022-09-01T21:56:01.272Z,100.00
2022-09-01T21:58:28.219Z,100.00
2022-09-01T22:00:55.836Z,100.00
2022-09-01T22:03:22.900Z,100.00
2022-09-01T22:05:51.343Z,100.00
2022-09-01T22:08:18.786Z,100.00
2022-09-01T22:10:52.133Z,100.00
2022-09-01T22:13:20.740Z,100.00
2022-09-01T22:15:50.731Z,100.00
2022-09-01T22:18:19.617Z,100.00
2022-09-01T22:20:47.034Z,100.00
2022-09-01T22:23:14.425Z,100.00
2022-09-01T22:25:43.880Z,100.00
2022-09-01T22:28:11.322Z,100.00
2022-09-01T22:30:47.253Z,100.00
2022-09-01T22:33:14.404Z,100.00
2022-09-01T22:35:43.328Z,100.00
2022-09-01T22:38:10.620Z,100.00
2022-09-01T22:41:05.016Z,100.00
2022-09-01T22:43:31.960Z,100.00
2022-09-01T22:46:00.207Z,100.00
2022-09-01T22:48:28.237Z,100.00
2022-09-01T22:50:55.277Z,100.00
2022-09-01T22:53:22.927Z,100.00
2022-09-01T22:55:51.486Z,100.00
2022-09-01T22:58:19.388Z,100.00
2022-09-01T23:00:58.610Z,100.00
2022-09-01T23:03:25.631Z,100.00
2022-09-01T23:06:06.852Z,100.00
2022-09-01T23:08:33.988Z,100.00
2022-09-01T23:11:00.867Z,100.00
2022-09-01T23:13:28.518Z,100.00
2022-09-01T23:15:57.082Z,100.00
2022-09-01T23:18:25.796Z,100.00
2022-09-01T23:20:52.702Z,100.00
2022-09-01T23:23:20.268Z,100.00
2022-09-01T23:25:50.453Z,100.00
2022-09-01T23:28:20.824Z,100.00
2022-09-01T23:30:50.090Z,100.00
2022-09-01T23:33:21.851Z,100.00
2022-09-01T23:35:52.604Z,100.00
2022-09-01T23:38:20.852Z,100.00
2022-09-01T23:40:50.584Z,100.00
2022-09-01T23:43:19.497Z,100.00
2022-09-01T23:45:50.431Z,100.00
2022-09-01T23:48:18.171Z,100.00
2022-09-01T23:50:51.039Z,100.00
2022-09-01T23:53:19.587Z,100.00
2022-09-01T23:55:50.493Z,100.00
2022-09-01T23:58:18.840Z,100.00
